Time;durP1;ratioP1;P1;durP2;ratioP2;P2;SDS_P1;SDS_P2;PMS_P1;PMS_P2;Temp;Humidity;BMP_temperature;BMP_pressure;BME280_temperature;BME280_humidity;BME280_pressure;Samples;Min_cycle;Max_cycle;Signal;HPM_P1;HPM_P2
2023/05/25 00:00:34;;;;;;;6.90;1.98;;;;;;;16.98;49.27;101407.66;5064872;28;20048;-74
2023/05/25 00:03:02;;;;;;;4.00;1.73;;;;;;;16.96;49.31;101397.19;5062670;28;20503;-74
2023/05/25 00:05:29;;;;;;;4.57;1.80;;;;;;;16.96;49.40;101396.31;5062561;28;20048;-74
2023/05/25 00:07:56;;;;;;;3.20;1.58;;;;;;;16.96;49.38;101401.56;5060965;28;20603;-73
2023/05/25 00:10:25;;;;;;;5.80;1.17;;;;;;;16.91;49.42;101399.13;5062086;28;20040;-73
2023/05/25 00:12:52;;;;;;;3.05;1.52;;;;;;;16.94;49.36;101406.06;5062104;28;20050;-73
2023/05/25 00:15:19;;;;;;;4.35;1.23;;;;;;;16.89;49.42;101397.44;5063434;28;20048;-72
2023/05/25 00:17:47;;;;;;;4.70;1.48;;;;;;;16.91;49.42;101395.63;5062366;28;20139;-74
2023/05/25 00:20:14;;;;;;;1.60;1.42;;;;;;;16.93;49.65;101401.69;5062839;28;20064;-73
2023/05/25 00:22:44;;;;;;;1.50;1.30;;;;;;;16.93;49.63;101405.19;5043138;28;20170;-73
2023/05/25 00:25:12;;;;;;;2.55;1.30;;;;;;;16.90;49.71;101396.53;5062360;28;20048;-72
2023/05/25 00:27:40;;;;;;;1.40;1.17;;;;;;;16.92;49.84;101397.34;5060658;28;20068;-73
2023/05/25 00:30:08;;;;;;;1.80;1.25;;;;;;;16.91;49.66;101385.06;5065674;28;20047;-73
2023/05/25 00:32:35;;;;;;;4.68;1.70;;;;;;;16.89;49.91;101395.66;5061580;28;20734;-74
2023/05/25 00:35:02;;;;;;;2.50;1.10;;;;;;;16.77;49.72;101373.22;5056892;28;20519;-73
2023/05/25 00:37:29;;;;;;;4.07;1.85;;;;;;;16.89;49.80;101390.38;5064850;28;20044;-73
2023/05/25 00:39:56;;;;;;;1.70;1.48;;;;;;;16.88;50.05;101390.41;5058253;28;20049;-74
2023/05/25 00:42:24;;;;;;;2.38;1.75;;;;;;;16.87;50.15;101394.84;5064398;28;20131;-74
2023/05/25 00:44:52;;;;;;;2.83;1.50;;;;;;;16.84;49.96;101390.53;5064418;28;20048;-74
2023/05/25 00:47:19;;;;;;;5.07;1.50;;;;;;;16.87;50.33;101397.47;5059024;28;20060;-74
2023/05/25 00:49:46;;;;;;;3.05;1.88;;;;;;;16.86;50.35;101394.00;5060844;28;20045;-74
2023/05/25 00:52:13;;;;;;;3.47;1.30;;;;;;;16.86;50.36;101386.06;5058515;28;20087;-74
2023/05/25 00:54:40;;;;;;;6.18;1.23;;;;;;;16.69;50.64;101364.66;5058701;28;20048;-75
2023/05/25 00:57:08;;;;;;;6.05;1.40;;;;;;;16.88;50.43;101387.78;5063019;28;20501;-74
2023/05/25 00:59:40;;;;;;;3.00;1.10;;;;;;;16.89;50.72;101389.53;5056894;28;20044;-74
2023/05/25 01:02:12;;;;;;;2.70;1.38;;;;;;;16.89;50.89;101392.16;5061483;28;20519;-74
2023/05/25 01:04:44;;;;;;;3.25;1.33;;;;;;;16.89;51.37;101397.44;5060411;28;20053;-75
2023/05/25 01:07:12;;;;;;;1.60;1.13;;;;;;;16.80;51.36;101383.66;5062067;28;20504;-73
2023/05/25 01:09:41;;;;;;;2.78;1.58;;;;;;;16.89;51.67;101393.03;5056002;28;20140;-74
2023/05/25 01:12:10;;;;;;;4.43;0.90;;;;;;;16.87;51.79;101386.94;5060035;28;20128;-74
2023/05/25 01:14:39;;;;;;;2.15;1.00;;;;;;;16.87;51.93;101381.66;5061700;28;20078;-73
2023/05/25 01:17:08;;;;;;;1.08;0.70;;;;;;;16.86;52.08;101387.84;5062428;28;20045;-74
2023/05/25 01:19:39;;;;;;;1.75;1.00;;;;;;;16.85;52.16;101379.09;5053368;28;20750;-74
2023/05/25 01:22:15;;;;;;;1.10;0.80;;;;;;;16.82;52.41;101373.91;5057564;28;20094;-76
2023/05/25 01:24:46;;;;;;;4.50;1.10;;;;;;;16.86;52.41;101379.94;5058967;28;20140;-72
2023/05/25 01:27:21;;;;;;;2.78;0.95;;;;;;;16.81;52.24;101377.44;5062571;28;20055;-74
2023/05/25 01:29:49;;;;;;;0.90;0.90;;;;;;;16.85;52.43;101387.00;5058620;28;20044;-73
2023/05/25 01:32:17;;;;;;;1.13;1.02;;;;;;;16.83;52.48;101375.63;5064051;28;20562;-74
2023/05/25 01:34:46;;;;;;;1.13;0.98;;;;;;;16.85;52.29;101380.88;5055821;28;20055;-75
2023/05/25 01:37:16;;;;;;;4.80;0.90;;;;;;;16.82;52.47;101376.56;5062560;28;20145;-74
2023/05/25 01:39:43;;;;;;;2.03;0.85;;;;;;;16.83;52.50;101373.00;5051990;28;20068;-74
2023/05/25 01:42:10;;;;;;;1.30;0.93;;;;;;;16.82;52.53;101373.91;5062359;28;20078;-74
2023/05/25 01:44:38;;;;;;;2.15;0.80;;;;;;;16.84;52.52;101377.34;5061032;28;20041;-74
2023/05/25 01:47:10;;;;;;;1.00;0.80;;;;;;;16.84;52.53;101373.84;5056952;28;20049;-73
2023/05/25 01:49:43;;;;;;;1.75;0.70;;;;;;;16.84;52.65;101371.22;5060917;28;20048;-75
2023/05/25 01:52:22;;;;;;;1.27;1.02;;;;;;;16.84;52.45;101365.94;5062262;28;20075;-74
2023/05/25 01:54:55;;;;;;;1.60;0.90;;;;;;;16.84;52.61;101368.56;5059991;28;20602;-74
2023/05/25 01:57:23;;;;;;;3.63;1.05;;;;;;;16.83;52.70;101370.34;5061300;28;20055;-74
2023/05/25 01:59:53;;;;;;;1.38;0.63;;;;;;;16.82;52.66;101373.03;5057356;28;20042;-74
2023/05/25 02:02:20;;;;;;;1.58;0.65;;;;;;;16.82;52.79;101384.47;5060201;28;20041;-77
2023/05/25 02:04:48;;;;;;;1.75;0.70;;;;;;;16.82;52.75;101378.31;5063794;28;20048;-77
2023/05/25 02:07:16;;;;;;;0.90;0.75;;;;;;;16.82;52.72;101368.63;5057348;28;20043;-78
2023/05/25 02:09:43;;;;;;;4.75;0.70;;;;;;;16.81;52.78;101377.44;5059880;28;20041;-78
2023/05/25 02:12:10;;;;;;;1.05;0.90;;;;;;;16.82;53.05;101384.47;5062535;28;20052;-78
2023/05/25 02:14:37;;;;;;;0.82;0.63;;;;;;;16.82;53.00;101383.59;5046849;28;20052;-78
2023/05/25 02:17:04;;;;;;;2.80;0.90;;;;;;;16.81;52.92;101374.81;5059430;28;20037;-77
2023/05/25 02:19:31;;;;;;;0.70;0.70;;;;;;;16.81;52.97;101377.44;5059592;28;20060;-79
2023/05/25 02:21:58;;;;;;;2.10;0.80;;;;;;;16.80;52.75;101369.59;5066143;28;20386;-78
2023/05/25 02:24:26;;;;;;;2.15;0.77;;;;;;;16.67;53.00;101355.94;5062563;28;20044;-77
2023/05/25 02:26:53;;;;;;;4.43;0.77;;;;;;;16.76;52.97;101379.41;5062890;28;20049;-78
2023/05/25 02:29:20;;;;;;;2.85;0.80;;;;;;;16.78;52.84;101385.47;5065997;28;20060;-71
2023/05/25 02:31:47;;;;;;;3.35;0.63;;;;;;;16.78;53.15;101379.34;5062678;28;20048;-71
2023/05/25 02:34:14;;;;;;;1.25;0.80;;;;;;;16.78;53.33;101367.00;5059292;28;20052;-71
2023/05/25 02:36:42;;;;;;;0.70;0.65;;;;;;;16.76;53.16;101374.13;5064103;28;20543;-71
2023/05/25 02:39:09;;;;;;;4.13;0.95;;;;;;;16.76;53.16;101368.84;5061604;28;20472;-71
2023/05/25 02:41:37;;;;;;;0.98;0.60;;;;;;;16.75;53.03;101361.81;5063090;28;20045;-71
2023/05/25 02:44:05;;;;;;;3.33;1.08;;;;;;;16.74;53.13;101362.72;5060682;28;20045;-71
2023/05/25 02:46:32;;;;;;;1.13;0.75;;;;;;;16.75;53.27;101372.34;5065219;28;20053;-71
2023/05/25 02:48:59;;;;;;;2.10;1.00;;;;;;;16.74;53.25;101373.28;5055355;28;20036;-71
2023/05/25 02:51:26;;;;;;;2.55;0.75;;;;;;;16.71;53.16;101376.03;5064508;28;20048;-71
2023/05/25 02:53:53;;;;;;;3.53;1.00;;;;;;;16.73;53.27;101379.44;5060598;28;21186;-71
2023/05/25 02:56:21;;;;;;;2.53;0.70;;;;;;;16.73;53.22;101386.50;5062904;28;20051;-71
2023/05/25 02:58:50;;;;;;;2.88;0.75;;;;;;;16.72;53.30;101398.84;5061945;28;20044;-72
2023/05/25 03:01:17;;;;;;;3.13;0.80;;;;;;;16.71;53.36;101397.13;5060272;28;20051;-71
2023/05/25 03:03:45;;;;;;;2.15;0.80;;;;;;;16.66;53.40;101388.50;5063814;28;20041;-71
2023/05/25 03:06:13;;;;;;;0.60;0.50;;;;;;;16.68;53.19;101397.25;5065413;28;20547;-71
2023/05/25 03:08:40;;;;;;;0.88;0.70;;;;;;;16.68;53.16;101385.81;5059793;28;20045;-71
2023/05/25 03:11:07;;;;;;;2.70;0.77;;;;;;;16.67;53.05;101384.94;5062233;28;20048;-71
2023/05/25 03:13:34;;;;;;;1.98;0.98;;;;;;;16.67;53.03;101403.41;5060291;28;20045;-71
2023/05/25 03:16:02;;;;;;;6.43;0.60;;;;;;;16.64;53.08;101390.31;5062488;28;20051;-71
2023/05/25 03:18:29;;;;;;;2.17;0.57;;;;;;;16.65;53.05;101394.72;5060808;28;20075;-71
2023/05/25 03:20:56;;;;;;;4.53;0.70;;;;;;;16.55;53.28;101388.00;5064836;28;20138;-71
2023/05/25 03:23:23;;;;;;;1.00;0.80;;;;;;;16.63;53.38;101396.53;5064306;28;20067;-71
2023/05/25 03:25:50;;;;;;;1.10;0.55;;;;;;;16.63;53.22;101400.03;5060443;28;20409;-72
2023/05/25 03:28:17;;;;;;;3.03;0.85;;;;;;;16.63;53.28;101392.09;5064358;28;20106;-71
2023/05/25 03:30:44;;;;;;;1.52;0.50;;;;;;;16.52;53.36;101372.28;5059722;28;20050;-71
2023/05/25 03:33:13;;;;;;;0.95;0.68;;;;;;;16.63;53.29;101392.09;5063218;28;20108;-71
2023/05/25 03:35:40;;;;;;;5.20;0.80;;;;;;;16.62;53.24;101400.06;5062088;28;20094;-71
2023/05/25 03:38:07;;;;;;;1.45;0.85;;;;;;;16.62;53.37;101393.03;5060555;28;20049;-71
2023/05/25 03:40:34;;;;;;;2.45;0.50;;;;;;;16.62;53.37;101389.50;5058632;28;20044;-71
2023/05/25 03:43:01;;;;;;;2.95;0.60;;;;;;;16.61;53.38;101396.56;5059324;28;20048;-71
2023/05/25 03:45:27;;;;;;;1.40;0.50;;;;;;;16.60;53.54;101384.31;5062066;28;20048;-71
2023/05/25 03:47:54;;;;;;;1.15;0.50;;;;;;;16.57;53.43;101378.28;5063155;28;20044;-71
2023/05/25 03:50:23;;;;;;;1.73;0.70;;;;;;;16.60;53.36;101383.44;5059099;28;20932;-71
2023/05/25 03:52:50;;;;;;;0.95;0.57;;;;;;;16.62;53.33;101397.41;5060610;28;20059;-71
2023/05/25 03:55:17;;;;;;;4.68;0.60;;;;;;;16.61;53.52;101388.66;5060529;28;20053;-72
2023/05/25 03:57:43;;;;;;;2.05;0.60;;;;;;;16.60;53.50;101389.56;5065783;28;20047;-71
2023/05/25 04:00:12;;;;;;;1.73;0.60;;;;;;;16.62;53.67;101398.31;5061119;28;20544;-72
2023/05/25 04:02:38;;;;;;;1.05;0.95;;;;;;;16.64;53.69;101400.88;5061309;28;20049;-71
2023/05/25 04:05:06;;;;;;;0.70;0.70;;;;;;;16.63;53.69;101399.16;5058713;28;20452;-72
2023/05/25 04:07:36;;;;;;;0.90;0.52;;;;;;;16.64;53.69;101401.72;5058806;28;20045;-72
2023/05/25 04:10:03;;;;;;;2.47;0.55;;;;;;;16.64;53.86;101401.72;5060785;28;20045;-71
2023/05/25 04:12:31;;;;;;;2.83;0.70;;;;;;;16.66;53.72;101406.13;5064495;28;20051;-72
2023/05/25 04:14:58;;;;;;;1.63;0.73;;;;;;;16.64;53.43;101404.38;5054531;28;20052;-72
2023/05/25 04:17:25;;;;;;;1.08;0.60;;;;;;;16.65;53.60;101418.44;5058450;28;20048;-72
2023/05/25 04:19:52;;;;;;;1.10;0.60;;;;;;;16.66;53.65;101414.03;5057444;28;20055;-72
2023/05/25 04:22:19;;;;;;;0.90;0.50;;;;;;;16.64;53.70;101417.56;5063461;28;20052;-73
2023/05/25 04:24:47;;;;;;;3.05;0.50;;;;;;;16.62;53.54;101414.13;5062221;28;20045;-72
2023/05/25 04:27:14;;;;;;;3.40;0.90;;;;;;;16.65;53.59;101418.44;5058466;28;20794;-72
2023/05/25 04:29:41;;;;;;;1.55;0.50;;;;;;;16.65;53.77;101423.72;5059743;28;20417;-72
2023/05/25 04:32:09;;;;;;;1.77;0.52;;;;;;;16.59;53.50;101426.53;5060927;28;20048;-72
2023/05/25 04:34:36;;;;;;;1.33;0.50;;;;;;;16.63;53.63;101430.81;5055841;28;20044;-72
2023/05/25 04:37:04;;;;;;;0.77;0.55;;;;;;;16.65;53.74;101423.72;5060276;28;20127;-71
2023/05/25 04:39:31;;;;;;;2.97;0.60;;;;;;;16.64;53.69;101433.38;5055983;28;20539;-71
2023/05/25 04:42:03;;;;;;;2.20;0.70;;;;;;;16.61;53.81;101430.84;5059371;28;20067;-72
2023/05/25 04:44:30;;;;;;;1.63;0.60;;;;;;;16.63;53.78;101447.50;5061001;28;20048;-74
2023/05/25 04:46:58;;;;;;;2.70;0.60;;;;;;;16.64;53.91;101438.66;5058687;28;20041;-74
2023/05/25 04:49:25;;;;;;;0.95;0.60;;;;;;;16.66;53.79;101441.25;5064964;28;20417;-74
2023/05/25 04:51:52;;;;;;;1.27;0.52;;;;;;;16.68;53.75;101446.47;5060571;28;20436;-73
2023/05/25 04:54:19;;;;;;;2.03;0.90;;;;;;;16.67;53.70;101444.75;5060772;28;20078;-73
2023/05/25 04:56:46;;;;;;;2.50;0.50;;;;;;;16.69;53.76;101446.44;5059944;28;20059;-75
2023/05/25 04:59:15;;;;;;;1.05;0.57;;;;;;;16.61;53.73;101432.63;5062427;28;20132;-74
2023/05/25 05:01:43;;;;;;;1.50;0.60;;;;;;;16.72;53.73;101459.53;5061854;28;20141;-74
2023/05/25 05:04:10;;;;;;;1.42;0.60;;;;;;;16.74;54.09;101455.06;5039920;28;20456;-74
2023/05/25 05:06:38;;;;;;;2.15;0.70;;;;;;;16.74;53.84;101459.50;5013864;28;20042;-73
2023/05/25 05:09:05;;;;;;;1.33;0.60;;;;;;;16.72;53.86;101445.47;5015797;28;20494;-74
2023/05/25 05:11:32;;;;;;;4.88;0.93;;;;;;;16.78;53.66;101443.50;5014134;28;20051;-74
2023/05/25 05:13:59;;;;;;;3.53;0.85;;;;;;;16.81;53.94;101450.47;5020675;28;20399;-74
2023/05/25 05:16:32;;;;;;;3.60;0.60;;;;;;;16.82;53.97;101458.34;5020582;28;20103;-74
2023/05/25 05:18:59;;;;;;;4.47;0.50;;;;;;;16.82;53.85;101449.53;5022813;28;20124;-73
2023/05/25 05:21:26;;;;;;;3.78;0.60;;;;;;;16.84;54.07;101455.66;5016667;28;20050;-73
2023/05/25 05:23:52;;;;;;;1.65;0.73;;;;;;;16.89;54.17;101466.06;5014677;28;20044;-74
2023/05/25 05:26:20;;;;;;;3.60;0.60;;;;;;;16.92;54.24;101463.31;5017626;28;20075;-74
2023/05/25 05:28:47;;;;;;;2.30;0.40;;;;;;;16.95;54.09;101468.47;5019619;28;20051;-74
2023/05/25 05:31:16;;;;;;;3.08;0.68;;;;;;;16.89;54.23;101455.50;5014540;28;20600;-74
2023/05/25 05:33:44;;;;;;;2.30;0.60;;;;;;;17.01;54.16;101463.00;5020880;28;20111;-72
2023/05/25 05:36:11;;;;;;;2.92;0.40;;;;;;;17.06;53.84;101461.06;5015099;28;20637;-72
2023/05/25 05:38:39;;;;;;;2.20;0.98;;;;;;;17.08;53.98;101464.53;5017528;28;20049;-71
2023/05/25 05:41:12;;;;;;;2.33;0.60;;;;;;;17.14;54.08;101469.59;5016138;28;20136;-72
2023/05/25 05:43:40;;;;;;;2.15;0.40;;;;;;;17.19;53.69;101466.75;5019490;28;20050;-72
2023/05/25 05:46:08;;;;;;;1.48;0.60;;;;;;;17.23;53.52;101474.53;5017212;28;20049;-72
2023/05/25 05:48:35;;;;;;;3.47;0.50;;;;;;;17.27;53.40;101476.13;5018983;28;20041;-72
2023/05/25 05:51:03;;;;;;;2.75;0.60;;;;;;;17.30;53.39;101473.41;4973280;28;20099;-72
2023/05/25 05:53:31;;;;;;;3.13;0.50;;;;;;;17.36;53.58;101482.00;5011449;28;20053;-72
2023/05/25 05:55:58;;;;;;;6.68;0.65;;;;;;;17.39;53.07;101479.25;5018559;28;20128;-72
2023/05/25 05:58:26;;;;;;;6.53;0.85;;;;;;;17.43;53.43;101489.66;5017301;28;20096;-73
2023/05/25 06:00:53;;;;;;;3.10;0.50;;;;;;;17.44;53.17;101490.53;5020021;28;20133;-73
2023/05/25 06:03:20;;;;;;;1.60;0.63;;;;;;;17.48;53.53;101487.72;5019041;28;20053;-73
2023/05/25 06:05:47;;;;;;;4.82;0.68;;;;;;;17.52;53.18;101493.75;5019312;28;20481;-72
2023/05/25 06:08:16;;;;;;;5.05;0.60;;;;;;;17.57;53.22;101494.47;5019896;28;20051;-73
2023/05/25 06:10:42;;;;;;;3.88;0.82;;;;;;;17.60;52.90;101502.28;5019236;28;20053;-73
2023/05/25 06:13:10;;;;;;;6.75;0.70;;;;;;;17.66;52.81;101494.13;5017472;28;20063;-73
2023/05/25 06:15:37;;;;;;;2.78;0.80;;;;;;;17.70;52.85;101500.16;5017439;28;20053;-73
2023/05/25 06:18:04;;;;;;;5.18;0.70;;;;;;;17.74;52.72;101507.91;5020184;28;20042;-73
2023/05/25 06:20:31;;;;;;;7.93;0.80;;;;;;;17.76;52.54;101508.72;5019304;28;20046;-73
2023/05/25 06:22:57;;;;;;;1.33;0.50;;;;;;;17.82;52.20;101512.97;5016529;28;20042;-73
2023/05/25 06:25:26;;;;;;;0.98;0.50;;;;;;;17.87;51.84;101513.66;5023713;28;20042;-73
2023/05/25 06:27:52;;;;;;;4.65;0.60;;;;;;;17.93;51.57;101528.41;5020639;28;20569;-72
2023/05/25 06:30:19;;;;;;;1.23;0.50;;;;;;;17.97;50.44;101535.31;5021038;28;20038;-72
2023/05/25 06:32:46;;;;;;;4.05;0.60;;;;;;;18.01;49.43;101551.91;5022750;28;20044;-75
2023/05/25 06:35:18;;;;;;;3.95;0.57;;;;;;;18.00;47.87;101571.34;5019803;28;20059;-75
2023/05/25 06:37:45;;;;;;;3.95;0.70;;;;;;;17.98;47.18;101568.75;5018612;28;20050;-75
2023/05/25 06:40:12;;;;;;;3.63;0.50;;;;;;;17.93;45.44;101581.28;5019298;28;20049;-76
2023/05/25 06:42:40;;;;;;;4.10;1.10;;;;;;;17.85;43.30;101578.94;5021681;28;20470;-75
2023/05/25 06:45:08;;;;;;;4.60;0.63;;;;;;;17.75;43.47;101583.63;5019091;28;20046;-75
2023/05/25 06:47:35;;;;;;;5.18;0.50;;;;;;;17.70;43.37;101590.88;5019764;28;20053;-77
2023/05/25 06:50:02;;;;;;;2.85;0.45;;;;;;;17.59;43.29;101577.19;5019477;28;20068;-76
2023/05/25 06:52:30;;;;;;;7.72;1.05;;;;;;;17.67;43.48;101605.94;5025210;28;20516;-76
2023/05/25 06:54:57;;;;;;;8.15;0.63;;;;;;;17.65;43.27;101613.09;5022857;28;20056;-76
2023/05/25 06:57:24;;;;;;;4.53;1.00;;;;;;;17.63;42.98;101605.19;5016642;28;20046;-74
2023/05/25 06:59:52;;;;;;;4.75;0.50;;;;;;;17.64;42.48;101606.91;5015751;28;20524;-76
2023/05/25 07:02:19;;;;;;;6.72;0.63;;;;;;;17.64;42.07;101614.84;5020553;28;20540;-75
2023/05/25 07:04:46;;;;;;;5.78;0.60;;;;;;;17.66;42.13;101612.16;5021933;28;20057;-77
2023/05/25 07:07:13;;;;;;;7.55;0.50;;;;;;;17.70;42.15;101606.72;5016863;28;20445;-74
2023/05/25 07:09:40;;;;;;;2.92;0.70;;;;;;;17.57;42.31;101586.94;5020084;28;20052;-73
2023/05/25 07:12:09;;;;;;;3.72;0.40;;;;;;;17.77;42.18;101620.59;5017072;28;20049;-74
2023/05/25 07:14:36;;;;;;;1.85;0.20;;;;;;;17.80;41.83;101614.38;5018934;28;20096;-74
2023/05/25 07:17:05;;;;;;;4.97;0.38;;;;;;;17.81;41.46;101610.78;5020275;28;20046;-76
2023/05/25 07:19:32;;;;;;;3.47;0.50;;;;;;;17.84;41.20;101619.47;5022769;28;20045;-74
2023/05/25 07:21:59;;;;;;;4.45;0.40;;;;;;;17.92;40.91;101632.41;5019117;28;20057;-76
2023/05/25 07:24:26;;;;;;;4.25;0.60;;;;;;;17.94;40.44;101630.59;5019429;28;20058;-74
2023/05/25 07:26:53;;;;;;;5.03;0.70;;;;;;;18.00;41.01;101630.38;5024757;28;20099;-74
2023/05/25 07:29:20;;;;;;;3.20;0.45;;;;;;;18.06;40.50;101639.88;5022260;28;20060;-74
2023/05/25 07:31:47;;;;;;;4.55;0.40;;;;;;;18.07;40.24;101621.31;5017991;28;20053;-74
2023/05/25 07:34:15;;;;;;;5.30;0.63;;;;;;;18.15;40.88;101624.50;5019388;28;20052;-76
2023/05/25 07:36:42;;;;;;;1.25;0.40;;;;;;;18.26;40.48;101641.78;5024897;28;20061;-75
2023/05/25 07:39:10;;;;;;;5.75;0.98;;;;;;;18.26;41.02;101626.78;5022270;28;20395;-74
2023/05/25 07:41:37;;;;;;;5.97;1.00;;;;;;;18.34;39.51;101650.31;5021239;28;20054;-75
2023/05/25 07:44:04;;;;;;;2.63;0.30;;;;;;;18.37;39.23;101650.19;5022753;28;20052;-75
2023/05/25 07:46:31;;;;;;;4.13;0.30;;;;;;;18.41;39.15;101651.78;4990132;28;20058;-77
2023/05/25 07:48:58;;;;;;;5.10;0.40;;;;;;;18.42;38.42;101650.88;5021993;28;20422;-76
2023/05/25 07:51:30;;;;;;;3.83;1.15;;;;;;;18.39;38.82;101649.22;5017881;28;20050;-77
2023/05/25 07:53:57;;;;;;;2.33;0.30;;;;;;;18.34;38.06;101635.28;5021858;28;20097;-76
2023/05/25 07:56:24;;;;;;;2.65;0.30;;;;;;;18.42;37.60;101658.81;5022539;28;20046;-76
2023/05/25 07:58:51;;;;;;;6.13;0.30;;;;;;;18.41;36.98;101660.63;5018187;28;20048;-77
2023/05/25 08:01:17;;;;;;;1.98;0.40;;;;;;;18.38;37.73;101658.06;5018053;28;20052;-74
2023/05/25 08:03:44;;;;;;;4.03;0.30;;;;;;;18.43;37.47;101677.28;5018528;28;20052;-76
2023/05/25 08:06:12;;;;;;;2.70;0.55;;;;;;;18.45;37.15;101679.88;5023677;28;20045;-83
2023/05/25 08:08:40;;;;;;;4.32;0.50;;;;;;;18.49;37.15;101689.41;5027338;28;20453;-80
2023/05/25 08:11:07;;;;;;;1.35;0.20;;;;;;;18.48;36.61;101685.03;5022745;28;20049;-72
2023/05/25 08:13:34;;;;;;;2.03;0.30;;;;;;;18.47;36.93;101693.91;5018175;28;20050;-71
2023/05/25 08:16:01;;;;;;;4.50;0.50;;;;;;;18.48;36.65;101700.91;5020399;28;20176;-75
2023/05/25 08:18:30;;;;;;;2.97;0.30;;;;;;;18.50;36.93;101703.50;5018537;28;20046;-80
2023/05/25 08:20:57;;;;;;;5.70;0.50;;;;;;;18.43;37.42;101687.84;5030156;28;20053;-77
2023/05/25 08:23:24;;;;;;;2.70;0.40;;;;;;;18.54;37.19;101705.97;5020808;28;20043;-77
2023/05/25 08:25:52;;;;;;;4.07;0.40;;;;;;;18.58;36.71;101712.00;5019499;28;20472;-79
2023/05/25 08:28:21;;;;;;;1.40;0.30;;;;;;;18.55;36.43;101725.38;5019644;28;20055;-80
2023/05/25 08:30:48;;;;;;;4.03;0.50;;;;;;;18.51;35.85;101729.91;5023202;28;20518;-78
2023/05/25 08:33:15;;;;;;;4.13;0.30;;;;;;;18.49;35.73;101729.09;5029146;28;20041;-80
2023/05/25 08:35:42;;;;;;;3.08;0.50;;;;;;;18.49;35.09;101744.97;5025083;28;20064;-81
2023/05/25 08:38:09;;;;;;;4.25;0.50;;;;;;;18.48;35.62;101737.97;5018847;28;20553;-75
2023/05/25 08:40:36;;;;;;;8.20;2.05;;;;;;;18.49;35.65;101744.09;5023106;28;20057;-78
2023/05/25 08:43:04;;;;;;;4.50;0.30;;;;;;;18.48;35.19;101737.09;5023148;28;20053;-75
2023/05/25 08:45:31;;;;;;;2.03;0.30;;;;;;;18.48;35.46;101743.25;5019526;28;20107;-78
2023/05/25 08:47:59;;;;;;;2.80;0.30;;;;;;;18.46;35.37;101744.22;5023898;28;20048;-76
2023/05/25 08:50:27;;;;;;;5.10;0.50;;;;;;;18.39;35.01;101735.66;5020450;28;20049;-77
2023/05/25 08:52:57;;;;;;;3.50;0.43;;;;;;;18.40;34.84;101745.31;5017448;28;20046;-75
2023/05/25 08:55:29;;;;;;;3.38;0.35;;;;;;;18.35;34.88;101740.16;5018612;28;20045;-75
2023/05/25 08:58:02;;;;;;;7.53;0.30;;;;;;;18.31;35.43;101735.91;5023270;28;20053;-82
2023/05/25 09:00:36;;;;;;;1.70;0.30;;;;;;;18.32;35.25;101748.22;5024531;28;20052;-76
2023/05/25 09:03:09;;;;;;;3.40;0.45;;;;;;;18.28;35.43;101753.69;5022560;28;20413;-80
2023/05/25 09:05:36;;;;;;;4.97;0.30;;;;;;;18.25;34.93;101767.03;5021848;28;20498;-76
2023/05/25 09:08:05;;;;;;;4.72;0.65;;;;;;;18.19;34.74;101758.38;5027324;28;20051;-80
2023/05/25 09:10:34;;;;;;;3.45;0.30;;;;;;;18.14;34.87;101765.59;5018557;28;20057;-68
2023/05/25 09:13:02;;;;;;;4.32;0.63;;;;;;;18.13;34.92;101755.94;5019773;28;20132;-68
2023/05/25 09:15:31;;;;;;;1.15;0.22;;;;;;;18.13;34.94;101755.94;5018181;28;20047;-68
2023/05/25 09:17:58;;;;;;;3.33;0.60;;;;;;;18.14;34.62;101765.59;5016472;28;20050;-69
2023/05/25 09:20:30;;;;;;;3.90;0.30;;;;;;;18.14;34.34;101776.16;5020613;28;20045;-67
2023/05/25 09:22:57;;;;;;;4.72;0.30;;;;;;;18.12;33.86;101779.78;5013759;28;20054;-69
2023/05/25 09:25:25;;;;;;;3.90;0.40;;;;;;;18.06;34.18;101778.22;5019421;28;20466;-67
2023/05/25 09:27:52;;;;;;;2.58;0.30;;;;;;;18.06;34.38;101787.94;5017570;28;20065;-68
2023/05/25 09:30:18;;;;;;;4.25;0.73;;;;;;;18.05;34.33;101789.72;5019691;28;20046;-68
2023/05/25 09:32:47;;;;;;;1.60;0.52;;;;;;;18.03;34.33;101791.53;5023059;28;20064;-67
2023/05/25 09:35:15;;;;;;;1.42;0.40;;;;;;;18.02;34.12;101783.66;5025126;28;20046;-67
2023/05/25 09:37:42;;;;;;;8.77;0.60;;;;;;;18.03;33.99;101794.19;5024380;28;20057;-69
2023/05/25 09:40:10;;;;;;;2.70;0.30;;;;;;;18.03;34.10;101799.47;5022963;28;20761;-69
2023/05/25 09:42:38;;;;;;;3.00;1.05;;;;;;;18.02;33.18;101792.47;5019129;28;20729;-68
2023/05/25 09:45:06;;;;;;;2.38;0.30;;;;;;;18.01;33.50;101806.56;5021811;28;20053;-68
2023/05/25 09:47:33;;;;;;;2.20;0.30;;;;;;;18.00;33.16;101810.16;5024731;28;20046;-67
2023/05/25 09:50:03;;;;;;;1.85;0.20;;;;;;;18.02;32.95;101808.31;5022552;28;20045;-67
2023/05/25 09:52:30;;;;;;;2.38;0.30;;;;;;;18.03;32.64;101814.47;5023374;28;20511;-68
2023/05/25 09:54:57;;;;;;;2.70;0.25;;;;;;;18.03;32.75;101809.19;5022183;28;20129;-68
2023/05/25 09:57:24;;;;;;;1.80;0.20;;;;;;;18.03;32.88;101811.81;4997080;28;20493;-68
2023/05/25 09:59:52;;;;;;;3.15;1.38;;;;;;;18.08;33.19;101813.41;5021424;28;20053;-65
2023/05/25 10:02:19;;;;;;;3.22;0.30;;;;;;;18.13;33.10;101832.63;5017139;28;20057;-68
2023/05/25 10:04:47;;;;;;;1.20;0.20;;;;;;;18.14;32.66;101823.78;5023289;28;20098;-69
2023/05/25 10:07:16;;;;;;;3.08;0.63;;;;;;;18.15;31.90;101814.91;5021036;28;20049;-67
2023/05/25 10:09:46;;;;;;;1.15;0.20;;;;;;;18.16;32.05;101824.59;5020596;28;20045;-68
2023/05/25 10:12:17;;;;;;;2.25;0.30;;;;;;;18.15;31.92;101825.47;5022643;28;21739;-67
2023/05/25 10:14:46;;;;;;;3.63;0.25;;;;;;;18.15;31.76;101827.28;5019283;28;20445;-68
2023/05/25 10:17:18;;;;;;;5.82;0.30;;;;;;;18.08;31.74;101818.69;5019266;28;20056;-68
2023/05/25 10:19:50;;;;;;;2.00;0.28;;;;;;;18.09;31.11;101830.97;5023131;28;20076;-68
2023/05/25 10:22:21;;;;;;;3.38;0.20;;;;;;;17.98;31.09;101818.09;5021786;28;20050;-66
2023/05/25 10:24:55;;;;;;;1.60;0.35;;;;;;;18.01;31.32;101835.66;5013111;28;20520;-66
2023/05/25 10:27:24;;;;;;;2.25;0.30;;;;;;;17.97;30.89;101836.69;5020981;28;20046;-66
2023/05/25 10:29:52;;;;;;;3.17;0.30;;;;;;;17.94;31.03;101836.78;5025350;28;20124;-66
2023/05/25 10:32:19;;;;;;;0.93;0.40;;;;;;;17.94;31.12;101828.84;5023976;28;20056;-66
2023/05/25 10:34:47;;;;;;;2.13;0.22;;;;;;;17.93;31.14;101845.59;5021068;28;20461;-65
2023/05/25 10:37:16;;;;;;;5.07;0.30;;;;;;;17.92;31.33;101838.59;5022599;28;20795;-65
2023/05/25 10:39:45;;;;;;;0.63;0.20;;;;;;;17.91;30.89;101839.53;5021810;28;20599;-66
2023/05/25 10:42:12;;;;;;;1.75;0.30;;;;;;;17.87;30.86;101838.78;5019771;28;20053;-66
2023/05/25 10:44:41;;;;;;;3.20;0.20;;;;;;;17.84;31.02;101830.91;5020127;28;20049;-66
2023/05/25 10:47:09;;;;;;;2.05;0.20;;;;;;;17.81;31.10;101836.28;5018075;28;20053;-65
2023/05/25 10:49:52;;;;;;;2.15;0.22;;;;;;;17.81;31.33;101830.16;5023356;28;20133;-66
2023/05/25 10:52:19;;;;;;;1.13;0.30;;;;;;;17.80;30.85;101825.78;5021244;28;20046;-66
2023/05/25 10:54:48;;;;;;;3.92;0.30;;;;;;;17.81;31.00;101830.16;5017497;28;20053;-66
2023/05/25 10:57:19;;;;;;;2.63;0.63;;;;;;;17.82;31.61;101822.19;5019595;28;20054;-66
2023/05/25 10:59:50;;;;;;;0.65;0.20;;;;;;;17.82;30.88;101827.47;5019112;28;20498;-65
2023/05/25 11:02:21;;;;;;;2.65;0.22;;;;;;;17.83;31.16;101823.91;5021958;28;20124;-66
2023/05/25 11:04:49;;;;;;;1.55;0.25;;;;;;;17.84;31.27;101825.63;5018528;28;20045;-66
2023/05/25 11:07:18;;;;;;;2.85;0.20;;;;;;;17.82;31.59;101823.97;5024078;28;20107;-65
2023/05/25 11:09:58;;;;;;;1.90;0.20;;;;;;;17.87;32.71;101827.31;5024676;28;20707;-69
2023/05/25 11:12:27;;;;;;;3.17;0.20;;;;;;;17.89;32.07;101831.63;5018963;28;20069;-68
2023/05/25 11:15:15;;;;;;;3.42;0.88;;;;;;;17.88;32.36;101832.56;5021043;28;20065;-68
2023/05/25 11:17:46;;;;;;;2.35;0.30;;;;;;;17.88;31.66;101831.69;5021003;28;20049;-69
2023/05/25 11:20:23;;;;;;;0.75;0.20;;;;;;;17.84;31.17;101830.06;5022261;28;20053;-68
2023/05/25 11:22:52;;;;;;;0.70;0.20;;;;;;;17.83;31.66;101845.06;5019015;28;20054;-79
2023/05/25 11:25:44;;;;;;;6.38;0.20;;;;;;;17.77;31.86;101835.50;5025937;28;20051;-78
2023/05/25 11:28:11;;;;;;;0.40;0.20;;;;;;;17.74;31.29;101832.97;5002860;28;20065;-78